sensor_id;sensor_type;location;lat;lon;timestamp;temperature;humidity
7576;DHT22;3829;50.798;4.358;2024-02-21T00:00:17;9.60;99.90
7576;DHT22;3829;50.798;4.358;2024-02-21T00:02:43;9.70;99.90
7576;DHT22;3829;50.798;4.358;2024-02-21T00:05:09;9.70;99.90
7576;DHT22;3829;50.798;4.358;2024-02-21T00:07:37;9.80;99.90
7576;DHT22;3829;50.798;4.358;2024-02-21T00:10:03;9.90;99.90
7576;DHT22;3829;50.798;4.358;2024-02-21T00:12:28;9.90;99.90
7576;DHT22;3829;50.798;4.358;2024-02-21T00:14:54;9.90;99.90
7576;DHT22;3829;50.798;4.358;2024-02-21T00:17:20;10.00;99.90
7576;DHT22;3829;50.798;4.358;2024-02-21T00:19:45;10.00;99.90
7576;DHT22;3829;50.798;4.358;2024-02-21T00:22:11;10.00;99.90
7576;DHT22;3829;50.798;4.358;2024-02-21T00:24:37;10.00;99.90
7576;DHT22;3829;50.798;4.358;2024-02-21T00:27:02;10.00;99.90
7576;DHT22;3829;50.798;4.358;2024-02-21T00:29:28;10.00;99.90
7576;DHT22;3829;50.798;4.358;2024-02-21T00:31:54;9.90;99.90
7576;DHT22;3829;50.798;4.358;2024-02-21T00:34:19;10.00;99.90
7576;DHT22;3829;50.798;4.358;2024-02-21T00:36:45;10.00;99.90
7576;DHT22;3829;50.798;4.358;2024-02-21T00:39:11;10.00;99.90
7576;DHT22;3829;50.798;4.358;2024-02-21T00:41:36;10.00;99.90
7576;DHT22;3829;50.798;4.358;2024-02-21T00:44:02;10.00;99.90
7576;DHT22;3829;50.798;4.358;2024-02-21T00:46:30;10.00;99.90
7576;DHT22;3829;50.798;4.358;2024-02-21T00:48:56;10.00;99.90
7576;DHT22;3829;50.798;4.358;2024-02-21T00:51:22;10.00;99.90
7576;DHT22;3829;50.798;4.358;2024-02-21T00:53:47;10.00;99.90
7576;DHT22;3829;50.798;4.358;2024-02-21T00:56:13;10.10;99.90
7576;DHT22;3829;50.798;4.358;2024-02-21T00:58:38;10.00;99.90
7576;DHT22;3829;50.798;4.358;2024-02-21T01:01:04;10.00;99.90
7576;DHT22;3829;50.798;4.358;2024-02-21T01:03:30;10.10;99.90
7576;DHT22;3829;50.798;4.358;2024-02-21T01:05:55;10.10;99.90
7576;DHT22;3829;50.798;4.358;2024-02-21T01:08:21;10.00;99.90
7576;DHT22;3829;50.798;4.358;2024-02-21T01:10:47;10.00;99.90
7576;DHT22;3829;50.798;4.358;2024-02-21T01:13:12;10.00;99.90
7576;DHT22;3829;50.798;4.358;2024-02-21T01:15:38;10.00;99.90
7576;DHT22;3829;50.798;4.358;2024-02-21T01:18:04;10.00;99.90
7576;DHT22;3829;50.798;4.358;2024-02-21T01:20:30;9.90;99.90
7576;DHT22;3829;50.798;4.358;2024-02-21T01:22:56;9.80;99.90
7576;DHT22;3829;50.798;4.358;2024-02-21T01:25:21;9.80;99.90
7576;DHT22;3829;50.798;4.358;2024-02-21T01:27:47;9.60;99.90
7576;DHT22;3829;50.798;4.358;2024-02-21T01:30:12;9.70;99.90
7576;DHT22;3829;50.798;4.358;2024-02-21T01:32:38;9.70;99.90
7576;DHT22;3829;50.798;4.358;2024-02-21T01:35:04;9.70;99.90
7576;DHT22;3829;50.798;4.358;2024-02-21T01:37:30;9.70;99.90
7576;DHT22;3829;50.798;4.358;2024-02-21T01:39:55;9.60;99.90
7576;DHT22;3829;50.798;4.358;2024-02-21T01:42:21;9.70;99.90
7576;DHT22;3829;50.798;4.358;2024-02-21T01:44:46;9.80;99.90
7576;DHT22;3829;50.798;4.358;2024-02-21T01:47:12;9.80;99.90
7576;DHT22;3829;50.798;4.358;2024-02-21T01:49:41;9.70;99.90
7576;DHT22;3829;50.798;4.358;2024-02-21T01:52:07;9.70;99.90
7576;DHT22;3829;50.798;4.358;2024-02-21T01:54:34;9.60;99.90
7576;DHT22;3829;50.798;4.358;2024-02-21T01:57:00;9.50;99.90
7576;DHT22;3829;50.798;4.358;2024-02-21T01:59:25;9.50;99.90
7576;DHT22;3829;50.798;4.358;2024-02-21T02:01:51;9.40;99.90
7576;DHT22;3829;50.798;4.358;2024-02-21T02:04:19;9.30;99.90
7576;DHT22;3829;50.798;4.358;2024-02-21T02:06:45;9.40;99.90
7576;DHT22;3829;50.798;4.358;2024-02-21T02:09:11;9.40;99.90
7576;DHT22;3829;50.798;4.358;2024-02-21T02:11:37;9.50;99.90
7576;DHT22;3829;50.798;4.358;2024-02-21T02:14:03;9.50;99.90
7576;DHT22;3829;50.798;4.358;2024-02-21T02:16:28;9.40;99.90
7576;DHT22;3829;50.798;4.358;2024-02-21T02:18:54;9.40;99.90
7576;DHT22;3829;50.798;4.358;2024-02-21T02:21:27;9.40;99.90
7576;DHT22;3829;50.798;4.358;2024-02-21T02:23:54;9.40;99.90
7576;DHT22;3829;50.798;4.358;2024-02-21T02:26:19;9.40;99.90
7576;DHT22;3829;50.798;4.358;2024-02-21T02:28:45;9.40;99.90
7576;DHT22;3829;50.798;4.358;2024-02-21T02:31:11;9.40;99.90
7576;DHT22;3829;50.798;4.358;2024-02-21T02:33:36;9.50;99.90
7576;DHT22;3829;50.798;4.358;2024-02-21T02:36:02;9.50;99.90
7576;DHT22;3829;50.798;4.358;2024-02-21T02:38:28;9.40;99.90
7576;DHT22;3829;50.798;4.358;2024-02-21T02:40:53;9.40;99.90
7576;DHT22;3829;50.798;4.358;2024-02-21T02:43:19;9.50;99.90
7576;DHT22;3829;50.798;4.358;2024-02-21T02:45:44;9.50;99.90
7576;DHT22;3829;50.798;4.358;2024-02-21T02:48:10;9.50;99.90
7576;DHT22;3829;50.798;4.358;2024-02-21T02:50:36;9.50;99.90
7576;DHT22;3829;50.798;4.358;2024-02-21T02:53:01;9.50;99.90
7576;DHT22;3829;50.798;4.358;2024-02-21T02:55:27;9.70;99.90
7576;DHT22;3829;50.798;4.358;2024-02-21T02:57:54;9.50;99.90
7576;DHT22;3829;50.798;4.358;2024-02-21T03:00:21;9.60;99.90
7576;DHT22;3829;50.798;4.358;2024-02-21T03:02:49;9.60;99.90
7576;DHT22;3829;50.798;4.358;2024-02-21T03:05:18;9.70;99.90
7576;DHT22;3829;50.798;4.358;2024-02-21T03:07:44;9.70;99.90
7576;DHT22;3829;50.798;4.358;2024-02-21T03:10:11;9.80;99.90
7576;DHT22;3829;50.798;4.358;2024-02-21T03:12:36;9.80;99.90
7576;DHT22;3829;50.798;4.358;2024-02-21T03:15:03;9.80;99.90
7576;DHT22;3829;50.798;4.358;2024-02-21T03:17:28;9.90;99.90
7576;DHT22;3829;50.798;4.358;2024-02-21T03:19:54;10.00;99.90
7576;DHT22;3829;50.798;4.358;2024-02-21T03:22:22;10.00;99.90
7576;DHT22;3829;50.798;4.358;2024-02-21T03:24:48;10.10;99.90
7576;DHT22;3829;50.798;4.358;2024-02-21T03:27:13;10.00;99.90
7576;DHT22;3829;50.798;4.358;2024-02-21T03:29:39;10.00;99.90
7576;DHT22;3829;50.798;4.358;2024-02-21T03:32:05;10.00;99.90
7576;DHT22;3829;50.798;4.358;2024-02-21T03:34:30;10.00;99.90
7576;DHT22;3829;50.798;4.358;2024-02-21T03:36:56;10.00;99.90
7576;DHT22;3829;50.798;4.358;2024-02-21T03:39:22;10.00;99.90
7576;DHT22;3829;50.798;4.358;2024-02-21T03:41:47;10.10;99.90
7576;DHT22;3829;50.798;4.358;2024-02-21T03:44:13;10.10;99.90
7576;DHT22;3829;50.798;4.358;2024-02-21T03:46:39;10.00;99.90
7576;DHT22;3829;50.798;4.358;2024-02-21T03:49:04;9.90;99.90
7576;DHT22;3829;50.798;4.358;2024-02-21T03:51:30;10.00;99.90
7576;DHT22;3829;50.798;4.358;2024-02-21T03:53:56;10.00;99.90
7576;DHT22;3829;50.798;4.358;2024-02-21T03:56:22;10.00;99.90
7576;DHT22;3829;50.798;4.358;2024-02-21T03:58:47;10.00;99.90
7576;DHT22;3829;50.798;4.358;2024-02-21T04:01:15;10.00;99.90
7576;DHT22;3829;50.798;4.358;2024-02-21T04:03:41;9.90;99.90
7576;DHT22;3829;50.798;4.358;2024-02-21T04:06:07;9.80;99.90
7576;DHT22;3829;50.798;4.358;2024-02-21T04:08:34;9.80;99.90
7576;DHT22;3829;50.798;4.358;2024-02-21T04:10:59;9.80;99.90
7576;DHT22;3829;50.798;4.358;2024-02-21T04:13:25;9.60;99.90
7576;DHT22;3829;50.798;4.358;2024-02-21T04:15:51;9.60;99.90
7576;DHT22;3829;50.798;4.358;2024-02-21T04:18:16;9.50;99.90
7576;DHT22;3829;50.798;4.358;2024-02-21T04:20:42;9.50;99.90
7576;DHT22;3829;50.798;4.358;2024-02-21T04:23:08;9.50;99.90
7576;DHT22;3829;50.798;4.358;2024-02-21T04:25:33;9.60;99.90
7576;DHT22;3829;50.798;4.358;2024-02-21T04:27:59;9.60;99.90
7576;DHT22;3829;50.798;4.358;2024-02-21T04:30:25;9.60;99.90
7576;DHT22;3829;50.798;4.358;2024-02-21T04:32:50;9.50;99.90
7576;DHT22;3829;50.798;4.358;2024-02-21T04:35:16;9.60;99.90
7576;DHT22;3829;50.798;4.358;2024-02-21T04:37:42;9.50;99.90
7576;DHT22;3829;50.798;4.358;2024-02-21T04:40:08;9.50;99.90
7576;DHT22;3829;50.798;4.358;2024-02-21T04:42:34;9.50;99.90
7576;DHT22;3829;50.798;4.358;2024-02-21T04:45:00;9.50;99.90
7576;DHT22;3829;50.798;4.358;2024-02-21T04:47:26;9.50;99.90
7576;DHT22;3829;50.798;4.358;2024-02-21T04:49:52;9.50;99.90
7576;DHT22;3829;50.798;4.358;2024-02-21T04:52:18;9.50;99.90
7576;DHT22;3829;50.798;4.358;2024-02-21T04:54:43;9.60;99.90
7576;DHT22;3829;50.798;4.358;2024-02-21T04:57:09;9.60;99.90
7576;DHT22;3829;50.798;4.358;2024-02-21T04:59:36;9.60;99.90
7576;DHT22;3829;50.798;4.358;2024-02-21T05:02:02;9.70;99.90
7576;DHT22;3829;50.798;4.358;2024-02-21T05:04:28;9.70;99.90
7576;DHT22;3829;50.798;4.358;2024-02-21T05:06:54;9.70;99.90
7576;DHT22;3829;50.798;4.358;2024-02-21T05:09:20;9.60;99.90
7576;DHT22;3829;50.798;4.358;2024-02-21T05:11:46;9.70;99.90
7576;DHT22;3829;50.798;4.358;2024-02-21T05:14:13;9.50;99.90
7576;DHT22;3829;50.798;4.358;2024-02-21T05:16:39;9.40;99.90
7576;DHT22;3829;50.798;4.358;2024-02-21T05:19:05;9.50;99.90
7576;DHT22;3829;50.798;4.358;2024-02-21T05:21:30;9.50;99.90
7576;DHT22;3829;50.798;4.358;2024-02-21T05:23:56;9.50;99.90
7576;DHT22;3829;50.798;4.358;2024-02-21T05:26:23;9.50;99.90
7576;DHT22;3829;50.798;4.358;2024-02-21T05:28:49;9.50;99.90
7576;DHT22;3829;50.798;4.358;2024-02-21T05:31:16;9.50;99.90
7576;DHT22;3829;50.798;4.358;2024-02-21T05:33:42;9.40;99.90
7576;DHT22;3829;50.798;4.358;2024-02-21T05:36:08;9.50;99.90
7576;DHT22;3829;50.798;4.358;2024-02-21T05:38:34;9.40;99.90
7576;DHT22;3829;50.798;4.358;2024-02-21T05:41:00;9.40;99.90
7576;DHT22;3829;50.798;4.358;2024-02-21T05:43:26;9.50;99.90
7576;DHT22;3829;50.798;4.358;2024-02-21T05:45:52;9.60;99.90
7576;DHT22;3829;50.798;4.358;2024-02-21T05:48:17;9.60;99.90
7576;DHT22;3829;50.798;4.358;2024-02-21T05:50:43;9.60;99.90
7576;DHT22;3829;50.798;4.358;2024-02-21T05:53:09;9.60;99.90
7576;DHT22;3829;50.798;4.358;2024-02-21T05:55:35;9.50;99.90
7576;DHT22;3829;50.798;4.358;2024-02-21T05:58:01;9.50;99.90
7576;DHT22;3829;50.798;4.358;2024-02-21T06:00:28;9.50;99.90
7576;DHT22;3829;50.798;4.358;2024-02-21T06:02:53;9.50;99.90
7576;DHT22;3829;50.798;4.358;2024-02-21T06:05:19;9.50;99.90
7576;DHT22;3829;50.798;4.358;2024-02-21T06:07:45;9.40;99.90
7576;DHT22;3829;50.798;4.358;2024-02-21T06:10:14;9.40;99.90
7576;DHT22;3829;50.798;4.358;2024-02-21T06:12:39;9.50;99.90
7576;DHT22;3829;50.798;4.358;2024-02-21T06:15:05;9.50;99.90
7576;DHT22;3829;50.798;4.358;2024-02-21T06:17:31;9.50;99.90
7576;DHT22;3829;50.798;4.358;2024-02-21T06:19:57;9.50;99.90
7576;DHT22;3829;50.798;4.358;2024-02-21T06:22:23;9.60;99.90
7576;DHT22;3829;50.798;4.358;2024-02-21T06:24:48;9.60;99.90
7576;DHT22;3829;50.798;4.358;2024-02-21T06:27:14;9.60;99.90
7576;DHT22;3829;50.798;4.358;2024-02-21T06:29:41;9.60;99.90
7576;DHT22;3829;50.798;4.358;2024-02-21T06:32:07;9.60;99.90
7576;DHT22;3829;50.798;4.358;2024-02-21T06:34:33;9.60;99.90
7576;DHT22;3829;50.798;4.358;2024-02-21T06:36:58;9.60;99.90
7576;DHT22;3829;50.798;4.358;2024-02-21T06:39:24;9.70;99.90
7576;DHT22;3829;50.798;4.358;2024-02-21T06:41:50;9.60;99.90
7576;DHT22;3829;50.798;4.358;2024-02-21T06:44:17;9.60;99.90
7576;DHT22;3829;50.798;4.358;2024-02-21T06:46:43;9.60;99.90
7576;DHT22;3829;50.798;4.358;2024-02-21T06:49:08;9.60;99.90
7576;DHT22;3829;50.798;4.358;2024-02-21T06:51:34;9.60;99.90
7576;DHT22;3829;50.798;4.358;2024-02-21T06:54:00;9.60;99.90
7576;DHT22;3829;50.798;4.358;2024-02-21T06:56:26;9.60;99.90
7576;DHT22;3829;50.798;4.358;2024-02-21T06:58:54;9.60;99.90
7576;DHT22;3829;50.798;4.358;2024-02-21T07:01:20;9.60;99.90
7576;DHT22;3829;50.798;4.358;2024-02-21T07:03:45;9.60;99.90
7576;DHT22;3829;50.798;4.358;2024-02-21T07:06:11;9.40;99.90
7576;DHT22;3829;50.798;4.358;2024-02-21T07:08:37;9.40;99.90
7576;DHT22;3829;50.798;4.358;2024-02-21T07:11:05;9.30;99.90
7576;DHT22;3829;50.798;4.358;2024-02-21T07:13:31;9.40;99.90
7576;DHT22;3829;50.798;4.358;2024-02-21T07:15:57;9.50;99.90
7576;DHT22;3829;50.798;4.358;2024-02-21T07:18:23;9.40;99.90
7576;DHT22;3829;50.798;4.358;2024-02-21T07:20:51;9.40;99.90
7576;DHT22;3829;50.798;4.358;2024-02-21T07:23:16;9.50;99.90
7576;DHT22;3829;50.798;4.358;2024-02-21T07:25:42;9.40;99.90
7576;DHT22;3829;50.798;4.358;2024-02-21T07:28:08;9.30;99.90
7576;DHT22;3829;50.798;4.358;2024-02-21T07:30:33;9.40;99.90
7576;DHT22;3829;50.798;4.358;2024-02-21T07:32:59;9.30;99.90
7576;DHT22;3829;50.798;4.358;2024-02-21T07:35:25;9.20;99.90
7576;DHT22;3829;50.798;4.358;2024-02-21T07:37:50;9.20;99.90
7576;DHT22;3829;50.798;4.358;2024-02-21T07:40:16;9.30;99.90
7576;DHT22;3829;50.798;4.358;2024-02-21T07:42:43;9.30;99.90
7576;DHT22;3829;50.798;4.358;2024-02-21T07:45:09;9.30;99.90
7576;DHT22;3829;50.798;4.358;2024-02-21T07:47:36;9.40;99.90
7576;DHT22;3829;50.798;4.358;2024-02-21T07:50:02;9.40;99.90
7576;DHT22;3829;50.798;4.358;2024-02-21T07:52:28;9.60;99.90
7576;DHT22;3829;50.798;4.358;2024-02-21T07:54:53;9.40;99.90
7576;DHT22;3829;50.798;4.358;2024-02-21T07:57:19;9.40;99.90
7576;DHT22;3829;50.798;4.358;2024-02-21T07:59:45;9.50;99.90
7576;DHT22;3829;50.798;4.358;2024-02-21T08:02:13;9.40;99.90
7576;DHT22;3829;50.798;4.358;2024-02-21T08:04:39;9.50;99.90
7576;DHT22;3829;50.798;4.358;2024-02-21T08:07:05;9.50;99.90
7576;DHT22;3829;50.798;4.358;2024-02-21T08:09:31;9.50;99.90
7576;DHT22;3829;50.798;4.358;2024-02-21T08:11:57;9.50;99.90
7576;DHT22;3829;50.798;4.358;2024-02-21T08:14:23;9.60;99.90
7576;DHT22;3829;50.798;4.358;2024-02-21T08:16:50;9.60;99.90
7576;DHT22;3829;50.798;4.358;2024-02-21T08:19:16;9.50;99.90
7576;DHT22;3829;50.798;4.358;2024-02-21T08:21:42;9.50;99.90
7576;DHT22;3829;50.798;4.358;2024-02-21T08:24:08;9.60;99.90
7576;DHT22;3829;50.798;4.358;2024-02-21T08:26:33;9.60;99.90
7576;DHT22;3829;50.798;4.358;2024-02-21T08:28:59;9.60;99.90
7576;DHT22;3829;50.798;4.358;2024-02-21T08:31:26;9.50;99.90
7576;DHT22;3829;50.798;4.358;2024-02-21T08:33:57;9.50;99.90
7576;DHT22;3829;50.798;4.358;2024-02-21T08:36:28;9.50;99.90
7576;DHT22;3829;50.798;4.358;2024-02-21T08:38:55;9.40;99.90
7576;DHT22;3829;50.798;4.358;2024-02-21T08:41:20;9.40;99.90
7576;DHT22;3829;50.798;4.358;2024-02-21T08:43:49;9.50;99.90
7576;DHT22;3829;50.798;4.358;2024-02-21T08:46:15;9.50;99.90
7576;DHT22;3829;50.798;4.358;2024-02-21T08:48:40;9.70;99.90
7576;DHT22;3829;50.798;4.358;2024-02-21T08:51:06;9.70;99.90
7576;DHT22;3829;50.798;4.358;2024-02-21T08:53:32;9.80;99.90
7576;DHT22;3829;50.798;4.358;2024-02-21T08:55:58;9.80;99.90
7576;DHT22;3829;50.798;4.358;2024-02-21T08:58:24;9.80;99.90
7576;DHT22;3829;50.798;4.358;2024-02-21T09:00:52;9.80;99.90
7576;DHT22;3829;50.798;4.358;2024-02-21T09:03:18;9.90;99.90
7576;DHT22;3829;50.798;4.358;2024-02-21T09:05:46;9.90;99.90
7576;DHT22;3829;50.798;4.358;2024-02-21T09:08:12;10.00;99.90
7576;DHT22;3829;50.798;4.358;2024-02-21T09:10:40;10.00;99.90
7576;DHT22;3829;50.798;4.358;2024-02-21T09:13:05;9.90;99.90
7576;DHT22;3829;50.798;4.358;2024-02-21T09:15:33;10.00;99.90
7576;DHT22;3829;50.798;4.358;2024-02-21T09:17:58;10.00;99.90
7576;DHT22;3829;50.798;4.358;2024-02-21T09:20:24;10.00;99.90
7576;DHT22;3829;50.798;4.358;2024-02-21T09:22:50;10.10;99.90
7576;DHT22;3829;50.798;4.358;2024-02-21T09:25:16;10.10;99.90
7576;DHT22;3829;50.798;4.358;2024-02-21T09:27:44;10.10;99.90
7576;DHT22;3829;50.798;4.358;2024-02-21T09:30:10;10.20;99.90
7576;DHT22;3829;50.798;4.358;2024-02-21T09:32:37;10.20;99.90
7576;DHT22;3829;50.798;4.358;2024-02-21T09:35:03;10.30;99.90
7576;DHT22;3829;50.798;4.358;2024-02-21T09:37:31;10.40;99.90
7576;DHT22;3829;50.798;4.358;2024-02-21T09:39:56;10.50;99.90
7576;DHT22;3829;50.798;4.358;2024-02-21T09:42:29;10.50;99.90
7576;DHT22;3829;50.798;4.358;2024-02-21T09:44:56;10.40;99.90
7576;DHT22;3829;50.798;4.358;2024-02-21T09:47:28;10.50;99.90
7576;DHT22;3829;50.798;4.358;2024-02-21T09:49:57;10.60;99.90
7576;DHT22;3829;50.798;4.358;2024-02-21T09:52:24;10.60;99.90
7576;DHT22;3829;50.798;4.358;2024-02-21T09:54:52;10.60;99.90
7576;DHT22;3829;50.798;4.358;2024-02-21T09:57:20;10.80;99.90
7576;DHT22;3829;50.798;4.358;2024-02-21T09:59:46;10.90;99.90
7576;DHT22;3829;50.798;4.358;2024-02-21T10:02:11;10.80;99.90
7576;DHT22;3829;50.798;4.358;2024-02-21T10:04:39;10.80;99.90
7576;DHT22;3829;50.798;4.358;2024-02-21T10:07:05;10.70;99.90
7576;DHT22;3829;50.798;4.358;2024-02-21T10:09:31;10.70;99.90
7576;DHT22;3829;50.798;4.358;2024-02-21T10:12:09;10.60;99.90
7576;DHT22;3829;50.798;4.358;2024-02-21T10:14:35;10.80;99.90
7576;DHT22;3829;50.798;4.358;2024-02-21T10:17:00;11.00;99.90
7576;DHT22;3829;50.798;4.358;2024-02-21T10:19:27;11.10;99.90
7576;DHT22;3829;50.798;4.358;2024-02-21T10:22:02;11.20;99.90
7576;DHT22;3829;50.798;4.358;2024-02-21T10:24:29;11.30;99.90
7576;DHT22;3829;50.798;4.358;2024-02-21T10:27:02;11.20;99.90
7576;DHT22;3829;50.798;4.358;2024-02-21T10:29:30;11.20;99.90
7576;DHT22;3829;50.798;4.358;2024-02-21T10:32:07;11.30;99.90
7576;DHT22;3829;50.798;4.358;2024-02-21T10:34:33;11.40;99.90
7576;DHT22;3829;50.798;4.358;2024-02-21T10:37:02;11.60;99.90
7576;DHT22;3829;50.798;4.358;2024-02-21T10:39:30;11.30;99.90
7576;DHT22;3829;50.798;4.358;2024-02-21T10:42:00;11.30;99.90
7576;DHT22;3829;50.798;4.358;2024-02-21T10:44:28;11.20;99.90
7576;DHT22;3829;50.798;4.358;2024-02-21T10:46:56;11.20;99.90
7576;DHT22;3829;50.798;4.358;2024-02-21T10:49:25;11.10;99.90
7576;DHT22;3829;50.798;4.358;2024-02-21T10:51:54;11.40;99.90
7576;DHT22;3829;50.798;4.358;2024-02-21T10:54:36;11.50;99.90
7576;DHT22;3829;50.798;4.358;2024-02-21T10:57:05;11.60;99.90
7576;DHT22;3829;50.798;4.358;2024-02-21T10:59:32;11.70;99.90
7576;DHT22;3829;50.798;4.358;2024-02-21T11:01:58;11.70;99.90
7576;DHT22;3829;50.798;4.358;2024-02-21T11:04:25;11.60;99.90
7576;DHT22;3829;50.798;4.358;2024-02-21T11:06:52;11.70;99.90
7576;DHT22;3829;50.798;4.358;2024-02-21T11:09:17;11.70;99.90
7576;DHT22;3829;50.798;4.358;2024-02-21T11:11:44;11.90;99.90
7576;DHT22;3829;50.798;4.358;2024-02-21T11:14:17;11.70;99.90
7576;DHT22;3829;50.798;4.358;2024-02-21T11:16:43;11.70;99.90
7576;DHT22;3829;50.798;4.358;2024-02-21T11:19:20;11.70;99.90
7576;DHT22;3829;50.798;4.358;2024-02-21T11:21:45;11.80;99.90
7576;DHT22;3829;50.798;4.358;2024-02-21T11:24:13;11.70;99.90
7576;DHT22;3829;50.798;4.358;2024-02-21T11:26:40;11.50;99.90
7576;DHT22;3829;50.798;4.358;2024-02-21T11:29:07;11.50;99.90
7576;DHT22;3829;50.798;4.358;2024-02-21T11:31:43;11.30;99.90
7576;DHT22;3829;50.798;4.358;2024-02-21T11:34:11;11.20;99.90
7576;DHT22;3829;50.798;4.358;2024-02-21T11:36:47;11.10;99.90
7576;DHT22;3829;50.798;4.358;2024-02-21T11:39:20;11.20;99.90
7576;DHT22;3829;50.798;4.358;2024-02-21T11:41:48;11.20;99.90
7576;DHT22;3829;50.798;4.358;2024-02-21T11:44:13;11.20;99.90
7576;DHT22;3829;50.798;4.358;2024-02-21T11:46:39;11.40;99.90
7576;DHT22;3829;50.798;4.358;2024-02-21T11:49:05;11.10;99.90
7576;DHT22;3829;50.798;4.358;2024-02-21T11:51:31;11.20;99.90
7576;DHT22;3829;50.798;4.358;2024-02-21T11:53:57;11.10;99.90
7576;DHT22;3829;50.798;4.358;2024-02-21T11:56:23;11.20;99.90
7576;DHT22;3829;50.798;4.358;2024-02-21T11:58:49;11.30;99.90
7576;DHT22;3829;50.798;4.358;2024-02-21T12:01:15;11.30;99.90
7576;DHT22;3829;50.798;4.358;2024-02-21T12:03:42;11.30;99.90
7576;DHT22;3829;50.798;4.358;2024-02-21T12:06:08;11.20;99.90
7576;DHT22;3829;50.798;4.358;2024-02-21T12:08:42;11.10;99.90
7576;DHT22;3829;50.798;4.358;2024-02-21T12:11:18;11.00;99.90
7576;DHT22;3829;50.798;4.358;2024-02-21T12:13:44;11.20;99.90
7576;DHT22;3829;50.798;4.358;2024-02-21T12:16:09;11.20;99.90
7576;DHT22;3829;50.798;4.358;2024-02-21T12:18:35;11.10;99.90
7576;DHT22;3829;50.798;4.358;2024-02-21T12:21:01;11.00;99.90
7576;DHT22;3829;50.798;4.358;2024-02-21T12:23:27;10.80;99.90
7576;DHT22;3829;50.798;4.358;2024-02-21T12:25:53;11.00;99.90
7576;DHT22;3829;50.798;4.358;2024-02-21T12:28:19;11.00;99.90
7576;DHT22;3829;50.798;4.358;2024-02-21T12:30:47;11.00;99.90
7576;DHT22;3829;50.798;4.358;2024-02-21T12:33:13;11.10;99.90
7576;DHT22;3829;50.798;4.358;2024-02-21T12:35:39;11.10;99.90
7576;DHT22;3829;50.798;4.358;2024-02-21T12:38:05;11.10;99.90
7576;DHT22;3829;50.798;4.358;2024-02-21T12:40:31;10.90;99.90
7576;DHT22;3829;50.798;4.358;2024-02-21T12:42:59;10.90;99.90
7576;DHT22;3829;50.798;4.358;2024-02-21T12:45:27;10.90;99.90
7576;DHT22;3829;50.798;4.358;2024-02-21T12:47:53;11.10;99.90
7576;DHT22;3829;50.798;4.358;2024-02-21T12:50:18;11.30;99.90
7576;DHT22;3829;50.798;4.358;2024-02-21T12:52:45;11.30;99.90
7576;DHT22;3829;50.798;4.358;2024-02-21T12:55:10;11.50;99.90
7576;DHT22;3829;50.798;4.358;2024-02-21T12:57:38;11.30;99.90
7576;DHT22;3829;50.798;4.358;2024-02-21T13:00:06;11.40;99.90
7576;DHT22;3829;50.798;4.358;2024-02-21T13:02:35;11.40;99.90
7576;DHT22;3829;50.798;4.358;2024-02-21T13:05:00;11.20;99.90
7576;DHT22;3829;50.798;4.358;2024-02-21T13:07:29;11.40;99.90
7576;DHT22;3829;50.798;4.358;2024-02-21T13:09:54;11.40;99.90
7576;DHT22;3829;50.798;4.358;2024-02-21T13:12:20;11.40;99.90
7576;DHT22;3829;50.798;4.358;2024-02-21T13:14:46;11.50;99.90
7576;DHT22;3829;50.798;4.358;2024-02-21T13:17:11;11.60;99.90
7576;DHT22;3829;50.798;4.358;2024-02-21T13:19:37;11.70;99.90
7576;DHT22;3829;50.798;4.358;2024-02-21T13:22:03;11.70;99.90
7576;DHT22;3829;50.798;4.358;2024-02-21T13:24:30;11.60;99.90
7576;DHT22;3829;50.798;4.358;2024-02-21T13:26:56;11.20;99.90
7576;DHT22;3829;50.798;4.358;2024-02-21T13:29:22;11.30;99.90
7576;DHT22;3829;50.798;4.358;2024-02-21T13:31:48;11.40;99.90
7576;DHT22;3829;50.798;4.358;2024-02-21T13:34:15;11.30;99.90
7576;DHT22;3829;50.798;4.358;2024-02-21T13:36:41;11.10;99.90
7576;DHT22;3829;50.798;4.358;2024-02-21T13:39:07;11.10;99.90
7576;DHT22;3829;50.798;4.358;2024-02-21T13:41:34;11.10;99.90
7576;DHT22;3829;50.798;4.358;2024-02-21T13:43:59;11.10;99.90
7576;DHT22;3829;50.798;4.358;2024-02-21T13:46:26;11.10;99.90
7576;DHT22;3829;50.798;4.358;2024-02-21T13:49:02;10.90;99.90
7576;DHT22;3829;50.798;4.358;2024-02-21T13:51:29;10.80;99.90
7576;DHT22;3829;50.798;4.358;2024-02-21T13:53:55;10.80;99.90
7576;DHT22;3829;50.798;4.358;2024-02-21T13:56:21;10.60;99.90
7576;DHT22;3829;50.798;4.358;2024-02-21T13:58:46;10.60;99.90
7576;DHT22;3829;50.798;4.358;2024-02-21T14:01:12;10.50;99.90
7576;DHT22;3829;50.798;4.358;2024-02-21T14:03:37;10.40;99.90
7576;DHT22;3829;50.798;4.358;2024-02-21T14:06:03;10.40;99.90
7576;DHT22;3829;50.798;4.358;2024-02-21T14:08:30;10.50;99.90
7576;DHT22;3829;50.798;4.358;2024-02-21T14:10:57;10.50;99.90
7576;DHT22;3829;50.798;4.358;2024-02-21T14:13:24;10.50;99.90
7576;DHT22;3829;50.798;4.358;2024-02-21T14:15:50;10.40;99.90
7576;DHT22;3829;50.798;4.358;2024-02-21T14:18:16;10.40;99.90
7576;DHT22;3829;50.798;4.358;2024-02-21T14:20:42;10.40;99.90
7576;DHT22;3829;50.798;4.358;2024-02-21T14:23:08;10.40;99.90
7576;DHT22;3829;50.798;4.358;2024-02-21T14:25:34;10.30;99.90
7576;DHT22;3829;50.798;4.358;2024-02-21T14:27:59;10.20;99.90
7576;DHT22;3829;50.798;4.358;2024-02-21T14:30:26;10.10;99.90
7576;DHT22;3829;50.798;4.358;2024-02-21T14:32:52;10.00;99.90
7576;DHT22;3829;50.798;4.358;2024-02-21T14:35:17;10.10;99.90
7576;DHT22;3829;50.798;4.358;2024-02-21T14:37:43;10.00;99.90
7576;DHT22;3829;50.798;4.358;2024-02-21T14:40:09;9.90;99.90
7576;DHT22;3829;50.798;4.358;2024-02-21T14:42:35;9.90;99.90
7576;DHT22;3829;50.798;4.358;2024-02-21T14:45:01;9.90;99.90
7576;DHT22;3829;50.798;4.358;2024-02-21T14:47:30;9.80;99.90
7576;DHT22;3829;50.798;4.358;2024-02-21T14:49:56;9.80;99.90
7576;DHT22;3829;50.798;4.358;2024-02-21T14:52:22;9.70;99.90
7576;DHT22;3829;50.798;4.358;2024-02-21T14:54:50;9.70;99.90
7576;DHT22;3829;50.798;4.358;2024-02-21T14:57:17;9.70;99.90
7576;DHT22;3829;50.798;4.358;2024-02-21T14:59:43;9.80;99.90
7576;DHT22;3829;50.798;4.358;2024-02-21T15:02:08;9.70;99.90
7576;DHT22;3829;50.798;4.358;2024-02-21T15:04:35;9.70;99.90
7576;DHT22;3829;50.798;4.358;2024-02-21T15:07:01;9.70;99.90
7576;DHT22;3829;50.798;4.358;2024-02-21T15:09:28;9.70;99.90
7576;DHT22;3829;50.798;4.358;2024-02-21T15:11:54;9.60;99.90
7576;DHT22;3829;50.798;4.358;2024-02-21T15:14:19;9.60;99.90
7576;DHT22;3829;50.798;4.358;2024-02-21T15:16:46;9.60;99.90
7576;DHT22;3829;50.798;4.358;2024-02-21T15:19:11;9.60;99.90
7576;DHT22;3829;50.798;4.358;2024-02-21T15:21:37;9.60;99.90
7576;DHT22;3829;50.798;4.358;2024-02-21T15:24:03;9.40;99.90
7576;DHT22;3829;50.798;4.358;2024-02-21T15:26:29;9.50;99.90
7576;DHT22;3829;50.798;4.358;2024-02-21T15:28:55;9.40;99.90
7576;DHT22;3829;50.798;4.358;2024-02-21T15:31:22;9.50;99.90
7576;DHT22;3829;50.798;4.358;2024-02-21T15:33:49;9.40;99.90
7576;DHT22;3829;50.798;4.358;2024-02-21T15:36:15;9.50;99.90
7576;DHT22;3829;50.798;4.358;2024-02-21T15:38:41;9.40;99.90
7576;DHT22;3829;50.798;4.358;2024-02-21T15:41:07;9.30;99.90
7576;DHT22;3829;50.798;4.358;2024-02-21T15:43:33;9.40;99.90
7576;DHT22;3829;50.798;4.358;2024-02-21T15:45:58;9.40;99.90
7576;DHT22;3829;50.798;4.358;2024-02-21T15:48:24;9.40;99.90
7576;DHT22;3829;50.798;4.358;2024-02-21T15:50:49;9.40;99.90
7576;DHT22;3829;50.798;4.358;2024-02-21T15:53:15;9.40;99.90
7576;DHT22;3829;50.798;4.358;2024-02-21T15:55:41;9.40;99.90
7576;DHT22;3829;50.798;4.358;2024-02-21T15:58:07;9.30;99.90
7576;DHT22;3829;50.798;4.358;2024-02-21T16:00:33;9.30;99.90
7576;DHT22;3829;50.798;4.358;2024-02-21T16:02:59;9.20;99.90